Time;durP1;ratioP1;P1;durP2;ratioP2;P2;SDS_P1;SDS_P2;PMS_P1;PMS_P2;Temp;Humidity;BMP_temperature;BMP_pressure;BME280_temperature;BME280_humidity;BME280_pressure;Samples;Min_cycle;Max_cycle;Signal;HPM_P1;HPM_P2
2022/02/20 00:02:29;;;;;;;6.93;1.20;;;4.30;99.90;;;;;;5076298;28;20059;-56
2022/02/20 00:05:54;;;;;;;3.60;1.48;;;4.30;99.90;;;;;;5070511;28;20085;-56
2022/02/20 00:09:20;;;;;;;3.05;1.17;;;4.30;99.90;;;;;;5067331;28;20473;-56
2022/02/20 00:12:45;;;;;;;3.80;1.30;;;4.30;99.90;;;;;;5084781;28;20083;-53
2022/02/20 00:16:11;;;;;;;3.53;1.13;;;4.30;99.90;;;;;;5077988;28;20036;-55
2022/02/20 00:19:36;;;;;;;5.72;2.03;;;4.20;99.90;;;;;;5082855;28;20048;-56
2022/02/20 00:23:02;;;;;;;4.10;1.63;;;4.20;99.90;;;;;;5082016;28;20044;-54
2022/02/20 00:26:27;;;;;;;1.95;0.98;;;4.10;99.90;;;;;;5084951;28;20541;-54
2022/02/20 00:29:52;;;;;;;5.25;1.30;;;4.00;99.90;;;;;;5063531;28;20066;-54
2022/02/20 00:33:17;;;;;;;3.70;1.30;;;4.00;99.90;;;;;;5077255;28;20097;-55
2022/02/20 00:36:43;;;;;;;1.98;0.90;;;3.90;99.90;;;;;;5076994;28;20058;-55
2022/02/20 00:40:08;;;;;;;1.73;0.93;;;3.90;99.90;;;;;;5081346;28;20446;-58
2022/02/20 00:43:33;;;;;;;3.42;0.98;;;3.80;99.90;;;;;;5074934;28;20039;-56
2022/02/20 00:46:59;;;;;;;4.57;0.98;;;3.80;99.90;;;;;;5076694;28;20492;-55
2022/02/20 00:50:24;;;;;;;4.22;1.20;;;3.80;99.90;;;;;;5078989;28;20032;-55
2022/02/20 00:53:50;;;;;;;5.30;1.42;;;3.80;99.90;;;;;;5066103;28;20724;-53
2022/02/20 00:57:15;;;;;;;4.75;1.00;;;3.80;99.90;;;;;;5048221;28;20098;-55
2022/02/20 01:00:40;;;;;;;4.35;1.10;;;3.90;99.90;;;;;;5079986;28;20036;-55
2022/02/20 01:04:06;;;;;;;5.90;1.30;;;3.90;99.90;;;;;;5081532;28;20032;-54
2022/02/20 01:07:31;;;;;;;4.80;1.05;;;3.90;99.90;;;;;;5068762;28;20032;-53
2022/02/20 01:10:56;;;;;;;4.53;1.10;;;4.00;99.90;;;;;;5082138;28;20091;-52
2022/02/20 01:14:22;;;;;;;4.38;1.15;;;3.90;99.90;;;;;;5066636;28;20048;-53
2022/02/20 01:17:47;;;;;;;2.47;1.35;;;3.90;99.90;;;;;;5078819;28;20165;-52
2022/02/20 01:21:13;;;;;;;4.30;1.20;;;3.90;99.90;;;;;;5076451;28;20036;-56
2022/02/20 01:24:38;;;;;;;3.13;1.20;;;3.90;99.90;;;;;;5063777;28;20095;-55
2022/02/20 01:28:03;;;;;;;6.93;1.23;;;3.80;99.90;;;;;;5083739;28;20032;-54
2022/02/20 01:31:29;;;;;;;3.28;0.90;;;3.80;99.90;;;;;;5084320;28;20500;-55
2022/02/20 01:34:54;;;;;;;3.42;1.13;;;3.80;99.90;;;;;;5069188;28;20037;-54
2022/02/20 01:38:19;;;;;;;7.65;1.95;;;3.70;99.90;;;;;;5081348;28;20051;-55
2022/02/20 01:41:45;;;;;;;4.35;1.00;;;3.70;99.90;;;;;;5081583;28;20070;-56
2022/02/20 01:45:10;;;;;;;6.28;1.33;;;3.70;99.90;;;;;;5072401;28;20411;-53
2022/02/20 01:48:36;;;;;;;4.00;1.15;;;3.70;99.90;;;;;;5083197;28;20097;-55
2022/02/20 01:52:01;;;;;;;2.65;0.98;;;3.60;99.90;;;;;;5069745;28;20036;-54
2022/02/20 01:55:26;;;;;;;6.05;1.50;;;3.60;99.90;;;;;;5078659;28;20149;-52
2022/02/20 01:58:52;;;;;;;2.80;1.05;;;3.50;99.90;;;;;;5073510;28;20050;-53
2022/02/20 02:02:19;;;;;;;3.55;1.15;;;3.50;99.90;;;;;;5065037;28;20456;-55
2022/02/20 02:05:42;;;;;;;7.85;1.15;;;3.40;99.90;;;;;;5082114;28;20282;-54
2022/02/20 02:09:08;;;;;;;3.75;1.65;;;3.40;99.90;;;;;;5073593;28;20067;-52
2022/02/20 02:12:33;;;;;;;4.82;1.13;;;3.40;99.90;;;;;;5059825;28;20101;-56
2022/02/20 02:16:12;;;;;;;1.92;1.00;;;3.40;99.90;;;;;;5075440;28;20115;-56
2022/02/20 02:19:36;;;;;;;4.20;1.58;;;3.40;99.90;;;;;;5070716;28;20583;-55
2022/02/20 02:23:01;;;;;;;4.75;1.73;;;3.30;99.90;;;;;;5075668;28;20076;-55
2022/02/20 02:26:27;;;;;;;5.80;1.27;;;3.30;99.90;;;;;;5082944;28;20661;-56
2022/02/20 02:29:52;;;;;;;3.15;1.10;;;3.30;99.90;;;;;;5068920;28;20035;-52
2022/02/20 02:33:17;;;;;;;4.07;1.30;;;3.30;99.90;;;;;;5075239;28;20035;-56
2022/02/20 02:36:43;;;;;;;3.58;1.15;;;3.30;99.90;;;;;;5082514;28;20519;-56
2022/02/20 02:40:08;;;;;;;4.30;1.90;;;3.20;99.90;;;;;;5072832;28;20504;-53
2022/02/20 02:43:33;;;;;;;6.70;2.63;;;3.20;99.90;;;;;;5068149;28;20131;-53
2022/02/20 02:46:59;;;;;;;4.40;1.40;;;3.10;99.90;;;;;;5071503;28;20040;-51
2022/02/20 02:50:24;;;;;;;4.13;1.30;;;3.10;99.90;;;;;;5064645;28;20040;-54
2022/02/20 02:53:50;;;;;;;1.70;1.27;;;3.10;99.90;;;;;;5084161;28;20111;-54
2022/02/20 02:57:15;;;;;;;1.17;1.00;;;3.00;99.90;;;;;;5046026;28;20048;-55
2022/02/20 03:00:40;;;;;;;3.88;1.85;;;3.00;99.90;;;;;;5081052;28;20679;-53
2022/02/20 03:04:06;;;;;;;2.10;1.60;;;3.00;99.90;;;;;;5073031;28;20107;-54
2022/02/20 03:07:31;;;;;;;6.10;1.63;;;3.00;99.90;;;;;;5046075;28;20048;-56
2022/02/20 03:10:56;;;;;;;4.97;1.48;;;3.00;99.90;;;;;;5074950;28;20490;-51
2022/02/20 03:14:22;;;;;;;5.53;1.55;;;3.00;99.90;;;;;;5065374;28;20326;-55
2022/02/20 03:17:47;;;;;;;4.10;1.55;;;3.00;99.90;;;;;;5074902;28;20036;-54
2022/02/20 03:21:12;;;;;;;2.15;1.00;;;2.90;99.90;;;;;;5082425;28;20071;-50
2022/02/20 03:24:38;;;;;;;4.22;1.20;;;3.00;99.90;;;;;;5062744;28;20080;-52
2022/02/20 03:28:03;;;;;;;3.35;1.30;;;3.00;99.90;;;;;;5085971;28;20566;-53
2022/02/20 03:31:28;;;;;;;4.32;1.20;;;3.00;99.90;;;;;;5082727;28;20046;-55
2022/02/20 03:34:54;;;;;;;1.80;1.15;;;2.90;99.90;;;;;;5046356;28;20040;-55
2022/02/20 03:38:19;;;;;;;4.10;1.27;;;2.90;99.90;;;;;;5078097;28;20488;-54
2022/02/20 03:41:44;;;;;;;2.13;1.38;;;2.90;99.90;;;;;;5069640;28;20170;-56
2022/02/20 03:45:10;;;;;;;2.72;1.27;;;2.90;99.90;;;;;;5080808;28;20036;-51
2022/02/20 03:48:35;;;;;;;2.60;1.30;;;3.00;99.90;;;;;;5086131;28;20600;-55
2022/02/20 03:52:00;;;;;;;1.70;1.20;;;3.00;99.90;;;;;;5067189;28;20068;-55
2022/02/20 03:55:26;;;;;;;2.72;1.75;;;3.00;99.90;;;;;;5051566;28;20048;-55
2022/02/20 03:58:51;;;;;;;2.85;1.15;;;2.90;99.90;;;;;;5080238;28;20044;-55
2022/02/20 04:02:17;;;;;;;2.97;1.27;;;3.00;99.90;;;;;;5064885;28;20036;-52
2022/02/20 04:05:42;;;;;;;3.05;1.67;;;3.00;99.90;;;;;;5078412;28;20562;-53
2022/02/20 04:09:08;;;;;;;2.63;0.95;;;3.00;99.90;;;;;;5070933;28;20035;-55
2022/02/20 04:12:33;;;;;;;2.00;1.17;;;3.00;99.90;;;;;;5085829;28;20531;-55
2022/02/20 04:15:58;;;;;;;2.42;0.90;;;3.00;99.90;;;;;;5070634;28;20036;-52
2022/02/20 04:19:23;;;;;;;1.75;0.90;;;3.00;99.90;;;;;;5085684;28;20052;-54
2022/02/20 04:22:49;;;;;;;1.20;0.90;;;3.00;99.90;;;;;;5082295;28;20412;-53
2022/02/20 04:26:15;;;;;;;1.88;0.80;;;3.00;99.90;;;;;;5087090;28;20040;-53
2022/02/20 04:29:39;;;;;;;1.33;0.90;;;3.00;99.90;;;;;;5079615;28;20511;-52
2022/02/20 04:33:05;;;;;;;1.00;0.82;;;3.00;99.90;;;;;;5079301;28;20059;-53
2022/02/20 04:35:50;;;;;;;1.70;0.90;;;3.00;99.90;;;;;;5071701;28;20080;-56
2022/02/20 04:38:16;;;;;;;2.00;1.00;;;3.10;99.90;;;;;;5090090;28;20082;-55
2022/02/20 04:40:41;;;;;;;1.40;0.95;;;3.10;99.90;;;;;;5079915;28;20226;-57
2022/02/20 04:43:47;;;;;;;1.60;0.93;;;3.10;99.90;;;;;;5067368;28;20504;-59
2022/02/20 04:47:12;;;;;;;1.63;0.55;;;3.10;99.90;;;;;;5067664;28;20090;-58
2022/02/20 04:50:37;;;;;;;0.80;0.80;;;3.10;99.90;;;;;;5077184;28;20453;-59
2022/02/20 04:54:03;;;;;;;1.77;0.80;;;3.10;99.90;;;;;;5050449;28;20045;-57
2022/02/20 04:57:28;;;;;;;3.28;0.90;;;3.00;99.90;;;;;;5082642;28;20046;-58
2022/02/20 05:00:54;;;;;;;2.10;1.00;;;3.10;99.90;;;;;;5070973;28;20037;-58
2022/02/20 05:04:19;;;;;;;1.10;0.57;;;3.10;99.90;;;;;;5086926;28;20032;-59
2022/02/20 05:07:44;;;;;;;1.77;1.23;;;3.10;99.90;;;;;;5088509;28;20419;-57
2022/02/20 05:11:10;;;;;;;1.52;0.98;;;3.10;99.90;;;;;;5084800;28;20085;-56
2022/02/20 05:14:35;;;;;;;1.90;1.00;;;3.10;99.90;;;;;;5050124;28;20041;-56
2022/02/20 05:18:00;;;;;;;4.25;0.98;;;3.10;99.90;;;;;;5052089;28;20051;-58
2022/02/20 05:21:26;;;;;;;0.88;0.70;;;3.20;99.90;;;;;;5049569;28;20036;-56
2022/02/20 05:24:52;;;;;;;4.97;1.00;;;3.20;99.90;;;;;;5082622;28;20075;-57
2022/02/20 05:28:16;;;;;;;1.92;0.90;;;3.20;99.90;;;;;;5076309;28;20028;-57
2022/02/20 05:31:42;;;;;;;3.20;1.35;;;3.20;99.90;;;;;;5049709;28;20644;-56
2022/02/20 05:35:07;;;;;;;1.50;0.70;;;3.20;99.90;;;;;;5082044;28;20078;-58
2022/02/20 05:38:32;;;;;;;1.85;1.20;;;3.30;99.90;;;;;;5069931;28;20048;-58
2022/02/20 05:41:58;;;;;;;3.03;1.40;;;3.30;99.90;;;;;;5078316;28;20032;-58
2022/02/20 05:45:23;;;;;;;2.53;1.00;;;3.30;99.90;;;;;;5078394;28;20122;-57
2022/02/20 05:48:49;;;;;;;1.17;1.00;;;3.30;99.90;;;;;;5067541;28;20535;-57
2022/02/20 05:52:14;;;;;;;1.90;1.35;;;3.30;99.90;;;;;;5078065;28;20036;-59
2022/02/20 05:55:39;;;;;;;1.30;1.10;;;3.40;99.90;;;;;;5069328;28;20048;-57
2022/02/20 05:59:05;;;;;;;1.08;0.98;;;3.40;99.90;;;;;;5069257;28;20357;-57
2022/02/20 06:02:30;;;;;;;1.35;0.98;;;3.40;99.90;;;;;;5077594;28;20040;-55
2022/02/20 06:05:55;;;;;;;2.88;1.60;;;3.40;99.90;;;;;;5049022;28;20138;-57
2022/02/20 06:09:21;;;;;;;1.52;1.25;;;3.40;99.90;;;;;;5062780;28;20431;-58
2022/02/20 06:12:46;;;;;;;3.70;1.33;;;3.40;99.90;;;;;;5075782;28;20032;-57
2022/02/20 06:16:11;;;;;;;1.67;1.17;;;3.50;99.90;;;;;;5074334;28;20488;-58
2022/02/20 06:19:37;;;;;;;1.13;1.00;;;3.50;99.90;;;;;;5077728;28;20044;-57
2022/02/20 06:23:02;;;;;;;1.75;1.25;;;3.60;99.90;;;;;;5070510;28;20087;-57
2022/02/20 06:26:28;;;;;;;2.00;1.50;;;3.60;99.90;;;;;;5048973;28;20033;-58
2022/02/20 06:29:53;;;;;;;3.63;1.50;;;3.60;99.90;;;;;;5082216;28;20115;-57
2022/02/20 06:33:18;;;;;;;2.47;1.27;;;3.70;99.90;;;;;;5075498;28;20406;-56
2022/02/20 06:36:44;;;;;;;2.05;1.73;;;3.70;99.90;;;;;;5077463;28;20040;-57
2022/02/20 06:40:09;;;;;;;1.40;1.30;;;3.80;99.90;;;;;;5081235;28;20055;-57
2022/02/20 06:43:34;;;;;;;1.70;1.40;;;3.80;99.90;;;;;;5065215;28;20044;-57
2022/02/20 06:47:00;;;;;;;1.25;1.15;;;3.80;99.90;;;;;;5077428;28;20051;-58
2022/02/20 06:50:25;;;;;;;1.33;1.10;;;3.80;99.90;;;;;;5082824;28;20601;-57
2022/02/20 06:53:51;;;;;;;1.20;1.10;;;3.90;99.90;;;;;;5066686;28;20098;-59
2022/02/20 06:57:16;;;;;;;1.70;1.23;;;3.90;99.90;;;;;;5048412;28;20245;-58
2022/02/20 07:00:41;;;;;;;1.40;1.30;;;3.90;99.90;;;;;;5077177;28;20044;-58
2022/02/20 07:04:07;;;;;;;2.30;1.08;;;4.00;99.90;;;;;;5064231;28;20032;-57
2022/02/20 07:07:32;;;;;;;2.65;1.52;;;4.00;99.90;;;;;;5077405;28;20426;-58
2022/02/20 07:10:57;;;;;;;1.90;1.23;;;4.00;99.90;;;;;;5048202;28;20039;-57
2022/02/20 07:14:23;;;;;;;1.20;1.10;;;4.00;99.90;;;;;;5064336;28;20239;-58
2022/02/20 07:17:48;;;;;;;1.30;1.15;;;4.00;99.90;;;;;;5079025;28;20035;-58
2022/02/20 07:21:13;;;;;;;1.88;1.60;;;4.10;99.90;;;;;;5074876;28;20036;-58
2022/02/20 07:24:39;;;;;;;2.80;1.33;;;4.10;99.90;;;;;;5070669;28;20109;-56
2022/02/20 07:28:04;;;;;;;1.77;1.50;;;4.20;99.90;;;;;;5068210;28;20044;-57
2022/02/20 07:31:30;;;;;;;1.80;1.42;;;4.20;99.90;;;;;;5073491;28;20448;-58
2022/02/20 07:34:55;;;;;;;3.63;1.70;;;4.30;99.90;;;;;;5068644;28;20041;-57
2022/02/20 07:38:20;;;;;;;2.42;1.95;;;4.40;99.90;;;;;;5084003;28;20561;-58
2022/02/20 07:41:46;;;;;;;1.58;1.30;;;4.50;99.90;;;;;;5088574;28;20036;-58
2022/02/20 07:45:11;;;;;;;3.97;1.42;;;4.60;99.90;;;;;;5071281;28;20041;-58
2022/02/20 07:48:36;;;;;;;1.40;1.30;;;4.70;99.90;;;;;;5074730;28;20044;-57
2022/02/20 07:52:02;;;;;;;1.70;1.33;;;4.70;99.90;;;;;;5068975;28;20047;-59
2022/02/20 07:55:27;;;;;;;1.88;1.67;;;4.70;99.90;;;;;;5070725;28;20571;-58
2022/02/20 07:58:52;;;;;;;2.38;1.63;;;4.80;99.90;;;;;;5084940;28;20043;-58
2022/02/20 08:02:18;;;;;;;2.78;1.48;;;4.80;99.90;;;;;;5073850;28;20595;-58
2022/02/20 08:05:43;;;;;;;3.50;2.03;;;4.90;99.90;;;;;;5073368;28;20052;-58
2022/02/20 08:09:09;;;;;;;1.83;1.70;;;5.00;99.90;;;;;;5068517;28;20299;-56
2022/02/20 08:12:34;;;;;;;2.45;2.00;;;4.90;99.90;;;;;;5066092;28;20126;-58
2022/02/20 08:15:59;;;;;;;2.03;1.70;;;4.80;99.90;;;;;;5088494;28;20043;-58
2022/02/20 08:19:25;;;;;;;1.80;1.63;;;4.80;99.90;;;;;;5061365;28;20529;-58
2022/02/20 08:22:50;;;;;;;2.17;1.88;;;4.80;99.90;;;;;;5079794;28;20032;-59
2022/02/20 08:26:15;;;;;;;2.30;1.73;;;4.80;99.90;;;;;;5087880;28;20032;-57
2022/02/20 08:29:41;;;;;;;3.47;1.98;;;4.90;99.90;;;;;;5065298;28;20051;-58
2022/02/20 08:33:06;;;;;;;2.45;1.70;;;5.10;99.90;;;;;;5080620;28;20042;-58
2022/02/20 08:36:31;;;;;;;1.90;1.70;;;5.20;99.90;;;;;;5047823;28;20041;-57
2022/02/20 08:39:57;;;;;;;2.25;1.73;;;5.30;99.90;;;;;;5083089;28;20054;-58
2022/02/20 08:43:22;;;;;;;3.20;2.08;;;5.50;99.90;;;;;;5065922;28;20061;-58
2022/02/20 08:46:48;;;;;;;2.95;2.03;;;5.70;99.90;;;;;;5064436;28;20029;-57
2022/02/20 08:50:13;;;;;;;4.13;2.22;;;5.80;99.90;;;;;;5055548;28;20464;-58
2022/02/20 08:53:38;;;;;;;3.05;2.20;;;5.90;99.90;;;;;;5084813;28;20048;-56
2022/02/20 08:57:07;;;;;;;3.35;1.95;;;6.00;99.90;;;;;;5076111;28;20127;-58
2022/02/20 09:00:29;;;;;;;1.75;1.52;;;5.90;99.90;;;;;;5069070;28;20037;-57
2022/02/20 09:04:02;;;;;;;2.83;1.90;;;5.80;99.90;;;;;;5085541;28;20032;-57
2022/02/20 09:07:22;;;;;;;3.75;1.92;;;5.80;99.90;;;;;;5081918;28;20032;-57
2022/02/20 09:10:48;;;;;;;2.25;2.03;;;5.70;99.90;;;;;;5048928;28;20037;-58
2022/02/20 09:14:14;;;;;;;1.63;1.52;;;5.70;99.90;;;;;;5078172;28;20036;-56
2022/02/20 09:17:40;;;;;;;2.33;1.50;;;5.60;99.90;;;;;;5066941;28;20064;-57
2022/02/20 09:21:04;;;;;;;2.45;1.90;;;5.60;99.90;;;;;;5055187;28;20039;-56
2022/02/20 09:24:29;;;;;;;2.58;2.22;;;5.80;99.90;;;;;;5083270;28;20512;-57
2022/02/20 09:27:55;;;;;;;2.03;1.77;;;6.00;99.90;;;;;;5070410;28;20044;-58
2022/02/20 09:31:20;;;;;;;2.38;2.17;;;6.30;99.90;;;;;;5085210;28;20032;-57
2022/02/20 09:34:45;;;;;;;1.77;1.67;;;6.70;99.90;;;;;;5077523;28;20078;-57
2022/02/20 09:38:11;;;;;;;3.40;2.30;;;6.80;99.90;;;;;;5062252;28;20044;-57
2022/02/20 09:41:51;;;;;;;2.28;2.03;;;6.90;99.90;;;;;;5049718;28;20049;-56
2022/02/20 09:45:17;;;;;;;1.50;1.40;;;6.90;99.90;;;;;;5048304;28;20090;-55
2022/02/20 09:48:44;;;;;;;2.30;1.70;;;6.90;99.90;;;;;;5065768;28;20041;-53
2022/02/20 09:52:07;;;;;;;2.65;1.80;;;6.90;99.90;;;;;;5074150;28;20028;-57
2022/02/20 09:55:33;;;;;;;2.03;1.88;;;6.90;99.90;;;;;;5068885;28;20049;-54
2022/02/20 09:58:58;;;;;;;2.88;2.38;;;7.00;99.90;;;;;;5065800;28;20553;-56
2022/02/20 10:02:28;;;;;;;2.25;1.83;;;7.10;99.90;;;;;;5059119;28;20067;-56
2022/02/20 10:05:57;;;;;;;1.70;1.60;;;7.20;99.90;;;;;;5076767;28;20044;-57
2022/02/20 10:09:02;;;;;;;;;;;7.40;99.90;;;;;;5077116;28;20044;-57
2022/02/20 10:12:30;;;;;;;3.38;2.58;;;7.40;99.90;;;;;;5067921;28;19909;-58
2022/02/20 10:16:05;;;;;;;3.08;2.47;;;7.30;99.90;;;;;;5084469;28;20411;-56
2022/02/20 10:19:30;;;;;;;2.97;2.05;;;7.20;99.90;;;;;;5082307;28;20499;-60
2022/02/20 10:22:56;;;;;;;2.67;2.10;;;7.00;99.90;;;;;;5070306;28;20043;-59
2022/02/20 10:26:21;;;;;;;5.80;2.70;;;7.10;99.90;;;;;;5067156;28;20514;-58
2022/02/20 10:29:46;;;;;;;3.78;2.60;;;7.10;99.90;;;;;;5070961;28;20024;-59
2022/02/20 10:33:22;;;;;;;2.72;2.22;;;7.10;99.90;;;;;;5066789;28;20033;-59
2022/02/20 10:36:06;;;;;;;4.28;3.22;;;7.20;99.90;;;;;;5073888;28;20583;-71
2022/02/20 10:38:36;;;;;;;2.85;2.38;;;7.30;99.90;;;;;;5088081;28;20144;-71
2022/02/20 10:41:04;;;;;;;2.83;2.45;;;7.40;99.90;;;;;;5047362;28;20033;-71
2022/02/20 10:43:33;;;;;;;3.58;3.00;;;7.40;99.90;;;;;;5083944;28;20039;-69
2022/02/20 10:46:12;;;;;;;3.47;2.95;;;7.30;99.90;;;;;;5064699;28;20084;-68
2022/02/20 10:48:44;;;;;;;2.92;2.67;;;7.40;99.90;;;;;;5091928;28;20031;-71
2022/02/20 10:51:12;;;;;;;4.97;3.38;;;7.30;99.90;;;;;;5053305;28;20122;-72
2022/02/20 10:53:38;;;;;;;3.17;2.75;;;7.40;99.90;;;;;;5091947;28;20387;-69
2022/02/20 10:56:04;;;;;;;3.75;2.92;;;7.40;99.90;;;;;;5071109;28;20021;-74
2022/02/20 10:58:32;;;;;;;4.75;3.13;;;7.40;99.90;;;;;;5091366;28;20050;-72
2022/02/20 11:01:03;;;;;;;4.25;3.38;;;7.50;99.90;;;;;;5070132;28;20035;-73
2022/02/20 11:03:30;;;;;;;3.72;3.20;;;7.70;99.90;;;;;;5091587;28;20016;-71
2022/02/20 11:05:58;;;;;;;4.03;3.05;;;7.80;99.90;;;;;;5068013;28;20029;-71
2022/02/20 11:08:26;;;;;;;4.05;3.08;;;8.00;99.90;;;;;;5071136;28;20033;-73
2022/02/20 11:10:53;;;;;;;3.53;2.90;;;8.00;99.90;;;;;;5089148;28;20073;-74
2022/02/20 11:13:20;;;;;;;3.30;2.80;;;8.00;99.90;;;;;;5088243;28;20028;-70
2022/02/20 11:15:48;;;;;;;4.38;3.03;;;8.00;99.90;;;;;;5093378;28;20044;-67
2022/02/20 11:18:54;;;;;;;3.72;2.85;;;8.10;99.90;;;;;;5067948;28;20044;-72
2022/02/20 11:22:19;;;;;;;4.68;3.03;;;8.20;99.90;;;;;;5069961;28;20028;-70
2022/02/20 11:25:45;;;;;;;4.22;2.80;;;8.20;99.90;;;;;;5068372;28;20148;-71
2022/02/20 11:29:10;;;;;;;7.97;3.47;;;8.20;99.90;;;;;;5066826;28;20127;-70
2022/02/20 11:32:35;;;;;;;6.22;2.58;;;8.10;99.90;;;;;;5075451;28;20028;-69
2022/02/20 11:36:00;;;;;;;3.85;2.30;;;8.10;99.90;;;;;;5050652;28;20432;-69
2022/02/20 11:39:09;;;;;;;6.38;3.13;;;8.10;99.90;;;;;;5070967;28;20055;-69
2022/02/20 11:41:37;;;;;;;3.90;2.42;;;8.20;99.90;;;;;;5051014;28;20112;-70
2022/02/20 11:44:20;;;;;;;4.63;3.03;;;8.10;99.90;;;;;;5070210;28;20036;-69
2022/02/20 11:46:48;;;;;;;5.57;2.50;;;8.10;99.90;;;;;;5089280;28;20451;-69
2022/02/20 11:49:19;;;;;;;7.25;3.08;;;8.20;99.90;;;;;;5068876;28;20570;-70
2022/02/20 11:52:13;;;;;;;4.45;2.35;;;8.30;99.90;;;;;;5050659;28;20025;-69
2022/02/20 11:54:40;;;;;;;2.78;2.38;;;8.20;99.90;;;;;;5068347;28;20641;-70
2022/02/20 11:57:12;;;;;;;8.15;3.38;;;8.10;99.90;;;;;;5090099;28;20035;-69
2022/02/20 11:59:38;;;;;;;5.53;3.13;;;8.10;99.90;;;;;;5067887;28;20029;-69
2022/02/20 12:02:13;;;;;;;5.47;3.15;;;8.10;99.90;;;;;;5086103;28;20025;-69
2022/02/20 12:04:50;;;;;;;5.97;3.20;;;8.00;99.90;;;;;;5070291;28;20024;-69
2022/02/20 12:07:37;;;;;;;3.28;2.72;;;7.90;99.90;;;;;;5087790;28;20028;-69
2022/02/20 12:10:21;;;;;;;4.28;2.63;;;7.80;99.90;;;;;;5090367;28;20084;-69
2022/02/20 12:12:56;;;;;;;5.13;2.30;;;7.80;99.90;;;;;;5075655;28;20031;-70
2022/02/20 12:15:34;;;;;;;3.67;2.53;;;7.70;99.90;;;;;;5070135;28;20105;-70
2022/02/20 12:18:09;;;;;;;5.22;2.40;;;7.60;99.90;;;;;;5065603;28;20064;-69
2022/02/20 12:20:51;;;;;;;4.35;2.10;;;7.40;99.90;;;;;;5050011;28;20499;-69
2022/02/20 12:24:03;;;;;;;2.92;2.10;;;7.40;99.90;;;;;;5063796;28;20041;-69
2022/02/20 12:26:42;;;;;;;2.13;1.42;;;7.20;99.90;;;;;;5030993;28;20583;-69
2022/02/20 12:29:13;;;;;;;2.13;1.58;;;7.20;99.90;;;;;;5086904;28;20024;-70
2022/02/20 12:32:17;;;;;;;4.82;1.63;;;7.00;99.90;;;;;;5069702;28;20021;-69
2022/02/20 12:34:53;;;;;;;1.77;1.40;;;6.80;99.90;;;;;;4984003;28;20193;-70
2022/02/20 12:37:24;;;;;;;2.10;1.52;;;6.70;99.90;;;;;;4987798;28;20046;-67
2022/02/20 12:39:56;;;;;;;1.38;0.90;;;6.60;99.90;;;;;;5048343;28;20040;-67
2022/02/20 12:42:23;;;;;;;1.30;0.93;;;6.60;99.90;;;;;;5072615;28;20054;-67
2022/02/20 12:44:50;;;;;;;1.15;0.90;;;6.50;99.90;;;;;;5069725;28;20565;-68
2022/02/20 12:47:55;;;;;;;2.03;1.08;;;6.40;99.90;;;;;;5073294;28;20035;-68
2022/02/20 12:51:20;;;;;;;1.65;1.25;;;6.30;99.90;;;;;;5049425;28;20032;-66
2022/02/20 12:54:47;;;;;;;3.53;1.48;;;6.30;99.90;;;;;;5077846;28;20032;-67
2022/02/20 12:58:11;;;;;;;1.10;1.00;;;6.30;99.90;;;;;;5066142;28;20400;-68
2022/02/20 13:01:36;;;;;;;2.13;1.40;;;6.20;99.90;;;;;;5066611;28;20471;-68
2022/02/20 13:05:02;;;;;;;3.42;1.58;;;6.10;99.90;;;;;;5080927;28;20446;-67
2022/02/20 13:08:32;;;;;;;2.42;2.20;;;6.00;99.90;;;;;;5075120;28;20275;-67
2022/02/20 13:11:42;;;;;;;;;;;6.00;99.90;;;;;;5074593;28;20036;-68
2022/02/20 13:15:17;;;;;;;3.20;1.45;;;5.90;99.90;;;;;;5059161;28;20345;-70
2022/02/20 13:18:46;;;;;;;5.00;3.10;;;5.80;99.90;;;;;;5081929;28;20052;-71
2022/02/20 13:22:10;;;;;;;4.57;2.00;;;5.60;99.90;;;;;;5081887;28;20071;-71
2022/02/20 13:25:35;;;;;;;4.88;2.45;;;5.60;99.90;;;;;;5068278;28;20166;-70
2022/02/20 13:29:03;;;;;;;5.90;2.65;;;5.60;99.90;;;;;;5082643;28;20042;-70
2022/02/20 13:32:29;;;;;;;3.47;2.33;;;5.60;99.90;;;;;;5080155;28;20040;-72
2022/02/20 13:35:54;;;;;;;5.05;2.63;;;5.40;99.90;;;;;;5066956;28;20098;-69
2022/02/20 13:39:28;;;;;;;4.35;2.80;;;5.40;99.90;;;;;;5067457;28;20052;-69
2022/02/20 13:42:54;;;;;;;11.90;6.18;;;5.40;99.90;;;;;;5076406;28;21073;-69
2022/02/20 13:46:33;;;;;;;6.47;2.80;;;5.40;99.90;;;;;;5069994;28;20122;-69
2022/02/20 13:49:41;;;;;;;;;;;5.40;99.90;;;;;;5067568;28;20040;-69
2022/02/20 13:52:46;;;;;;;;;;;5.40;99.90;;;;;;5076231;28;19908;-69
2022/02/20 13:56:12;;;;;;;7.75;3.17;;;5.50;99.90;;;;;;5061595;28;19916;-69
2022/02/20 13:59:17;;;;;;;10.27;3.08;;;5.50;99.90;;;;;;5070698;28;20078;-70
2022/02/20 14:02:52;;;;;;;6.90;3.65;;;5.50;99.90;;;;;;5067883;28;20403;-69
2022/02/20 14:06:17;;;;;;;6.68;3.00;;;5.70;99.90;;;;;;5079027;28;20426;-69
2022/02/20 14:09:45;;;;;;;5.85;3.55;;;5.80;99.90;;;;;;5080950;28;20032;-69
2022/02/20 14:12:54;;;;;;;;;;;5.80;99.90;;;;;;5046388;28;20044;-69
2022/02/20 14:15:59;;;;;;;;;;;5.90;99.90;;;;;;5075186;28;19912;-69
2022/02/20 14:19:25;;;;;;;5.07;3.22;;;5.90;99.90;;;;;;5072874;28;19920;-66
2022/02/20 14:22:50;;;;;;;5.13;3.17;;;5.90;99.90;;;;;;5085448;28;20317;-69
2022/02/20 14:26:15;;;;;;;4.68;3.30;;;6.00;99.90;;;;;;5061392;28;20090;-70
2022/02/20 14:29:44;;;;;;;4.82;2.63;;;6.10;99.90;;;;;;5080899;28;20023;-69
2022/02/20 14:33:15;;;;;;;3.63;2.67;;;6.10;99.90;;;;;;5045989;28;20045;-69
2022/02/20 14:36:23;;;;;;;3.50;2.28;;;6.10;99.90;;;;;;5080328;28;20383;-69
2022/02/20 14:39:48;;;;;;;3.47;2.53;;;6.20;99.90;;;;;;5072729;28;20043;-69
2022/02/20 14:43:14;;;;;;;4.75;2.70;;;6.30;99.90;;;;;;5055339;28;20032;-69
2022/02/20 14:46:39;;;;;;;3.70;2.20;;;6.40;99.90;;;;;;5079409;28;20149;-69
2022/02/20 14:50:04;;;;;;;3.35;2.42;;;6.50;99.90;;;;;;5076646;28;20110;-70
2022/02/20 14:53:30;;;;;;;5.65;2.20;;;6.60;99.90;;;;;;5085757;28;20607;-69
2022/02/20 14:56:59;;;;;;;3.17;1.83;;;6.70;99.90;;;;;;5082212;28;20036;-69
2022/02/20 15:00:21;;;;;;;4.30;2.33;;;6.80;99.90;;;;;;5070672;28;20043;-69
2022/02/20 15:03:46;;;;;;;3.13;1.67;;;6.80;99.90;;;;;;5079380;28;20046;-70
2022/02/20 15:07:11;;;;;;;4.22;1.52;;;6.80;99.90;;;;;;5080004;28;20032;-69
2022/02/20 15:10:37;;;;;;;4.53;1.60;;;6.80;99.90;;;;;;5071564;28;20687;-69
2022/02/20 15:14:02;;;;;;;3.03;1.50;;;6.80;99.90;;;;;;5082376;28;20071;-70
2022/02/20 15:17:27;;;;;;;2.97;1.50;;;6.90;99.90;;;;;;5082054;28;20044;-69
2022/02/20 15:20:53;;;;;;;5.50;1.65;;;6.90;99.90;;;;;;5061727;28;20132;-69
2022/02/20 15:24:18;;;;;;;5.20;1.77;;;6.90;99.90;;;;;;5068018;28;20047;-69
2022/02/20 15:27:44;;;;;;;3.40;1.35;;;6.90;99.90;;;;;;5048032;28;20370;-70
2022/02/20 15:31:10;;;;;;;2.00;1.33;;;6.80;99.90;;;;;;5084103;28;20496;-72
2022/02/20 15:34:34;;;;;;;2.22;1.50;;;6.90;99.90;;;;;;5083070;28;20047;-70
2022/02/20 15:37:59;;;;;;;4.82;2.58;;;6.90;99.90;;;;;;5080452;28;20036;-68
2022/02/20 15:41:26;;;;;;;3.03;1.70;;;6.90;99.90;;;;;;5080786;28;20063;-68
2022/02/20 15:44:52;;;;;;;3.47;1.88;;;7.00;99.90;;;;;;5063383;28;20105;-71
2022/02/20 15:48:18;;;;;;;3.63;1.75;;;7.00;99.90;;;;;;5079263;28;20484;-71
2022/02/20 15:51:41;;;;;;;2.67;1.50;;;7.00;99.90;;;;;;5084725;28;20278;-71
2022/02/20 15:55:06;;;;;;;3.60;1.80;;;7.10;99.90;;;;;;5067130;28;20043;-69
2022/02/20 15:58:32;;;;;;;3.70;2.10;;;7.10;99.90;;;;;;5080022;28;20052;-68
2022/02/20 16:01:57;;;;;;;2.65;1.50;;;7.10;99.90;;;;;;5080147;28;20032;-67
2022/02/20 16:05:22;;;;;;;5.20;1.75;;;7.20;99.90;;;;;;5065722;28;20530;-69
2022/02/20 16:08:48;;;;;;;2.95;1.70;;;7.20;99.90;;;;;;5074354;28;20519;-70
2022/02/20 16:12:13;;;;;;;2.92;2.00;;;7.30;99.90;;;;;;5087430;28;20217;-68
2022/02/20 16:15:38;;;;;;;3.60;1.73;;;7.30;99.90;;;;;;5085630;28;20050;-69
2022/02/20 16:19:04;;;;;;;3.20;1.40;;;7.30;99.90;;;;;;5061543;28;20389;-69
2022/02/20 16:22:29;;;;;;;2.28;1.38;;;7.40;99.90;;;;;;5085335;28;20040;-69
2022/02/20 16:25:55;;;;;;;2.90;1.25;;;7.40;99.90;;;;;;5048359;28;20052;-69
2022/02/20 16:29:20;;;;;;;1.60;1.30;;;7.50;99.90;;;;;;5060600;28;20038;-69
2022/02/20 16:32:45;;;;;;;2.95;1.40;;;7.50;99.90;;;;;;5055545;28;20067;-69
2022/02/20 16:35:32;;;;;;;1.08;0.90;;;7.50;99.90;;;;;;5085060;28;20032;-62
2022/02/20 16:38:01;;;;;;;2.92;1.73;;;7.60;99.90;;;;;;5070663;28;20047;-69
2022/02/20 16:40:29;;;;;;;1.75;1.42;;;7.60;99.90;;;;;;5088419;28;20115;-69
2022/02/20 16:42:56;;;;;;;2.33;1.80;;;7.70;99.90;;;;;;5073317;28;20402;-69
2022/02/20 16:45:21;;;;;;;2.22;1.50;;;7.70;99.90;;;;;;5087816;28;20020;-69
2022/02/20 16:47:47;;;;;;;2.70;1.42;;;7.70;99.90;;;;;;5068605;28;20244;-68
2022/02/20 16:50:12;;;;;;;1.42;1.13;;;7.70;99.90;;;;;;5086349;28;20032;-69
2022/02/20 16:52:38;;;;;;;1.30;0.95;;;7.70;99.90;;;;;;5068497;28;20094;-69
2022/02/20 16:55:05;;;;;;;2.47;1.30;;;7.80;99.90;;;;;;5066503;28;20024;-69
2022/02/20 16:57:30;;;;;;;2.67;1.70;;;7.80;99.90;;;;;;5087291;28;20035;-69
2022/02/20 16:59:56;;;;;;;2.50;1.60;;;7.80;99.90;;;;;;5064415;28;20029;-69
2022/02/20 17:02:22;;;;;;;2.15;1.35;;;7.90;99.90;;;;;;5087128;28;20036;-69
2022/02/20 17:04:48;;;;;;;3.90;1.40;;;7.90;99.90;;;;;;5066358;28;20035;-70
2022/02/20 17:07:14;;;;;;;2.15;1.42;;;7.90;99.90;;;;;;5086738;28;20016;-71
2022/02/20 17:09:40;;;;;;;2.65;1.25;;;8.00;99.90;;;;;;5070361;28;20085;-71